createdAt,value
2022-11-20T00:04:27.907Z,19.13
2022-11-20T00:09:29.827Z,20.03
2022-11-20T00:14:31.767Z,18.83
2022-11-20T00:19:33.850Z,18.33
2022-11-20T00:24:38.906Z,18.83
2022-11-20T00:29:44.551Z,19.70
2022-11-20T00:34:46.431Z,19.23
2022-11-20T00:39:48.448Z,20.63
2022-11-20T00:44:50.188Z,21.43
2022-11-20T00:49:52.084Z,19.47
2022-11-20T00:54:53.818Z,19.10
2022-11-20T00:59:55.584Z,19.63
2022-11-20T01:04:57.315Z,17.87
2022-11-20T01:09:59.049Z,18.50
2022-11-20T01:15:01.054Z,20.70
2022-11-20T01:20:03.112Z,19.07
2022-11-20T01:25:05.263Z,20.63
2022-11-20T01:30:07.662Z,19.50
2022-11-20T01:35:10.620Z,20.90
2022-11-20T01:40:12.778Z,20.37
2022-11-20T01:45:51.530Z,19.60
2022-11-20T01:50:54.855Z,19.80
2022-11-20T01:55:59.686Z,19.80
2022-11-20T02:01:01.627Z,18.90
2022-11-20T02:06:26.343Z,20.60
2022-11-20T02:11:28.157Z,19.23
2022-11-20T02:16:37.904Z,20.80
2022-11-20T02:22:01.175Z,20.40
2022-11-20T02:27:10.215Z,24.10
2022-11-20T02:32:38.850Z,23.03
2022-11-20T02:37:41.685Z,23.33
2022-11-20T02:42:43.647Z,23.97
2022-11-20T02:47:45.372Z,23.23
2022-11-20T02:52:47.469Z,22.57
2022-11-20T02:57:49.378Z,25.30
2022-11-20T03:02:51.316Z,25.77
2022-11-20T03:07:53.087Z,27.03
2022-11-20T03:12:56.371Z,26.00
2022-11-20T03:17:58.135Z,24.77
2022-11-20T03:22:59.918Z,25.10
2022-11-20T03:28:01.956Z,24.77
2022-11-20T03:33:03.710Z,24.17
2022-11-20T03:38:05.455Z,23.77
2022-11-20T03:43:07.548Z,18.93
2022-11-20T03:48:09.631Z,19.97
2022-11-20T03:53:11.873Z,18.73
2022-11-20T03:58:14.414Z,18.20
2022-11-20T04:03:16.323Z,17.47
2022-11-20T04:08:18.299Z,15.87
2022-11-20T04:13:20.257Z,16.73
2022-11-20T04:18:21.992Z,14.00
2022-11-20T04:23:28.541Z,14.20
2022-11-20T04:28:30.866Z,14.23
2022-11-20T04:33:34.290Z,13.60
2022-11-20T04:38:36.514Z,14.40
2022-11-20T04:43:38.310Z,15.00
2022-11-20T04:48:40.212Z,15.03
2022-11-20T04:53:43.017Z,14.43
2022-11-20T04:58:44.789Z,16.50
2022-11-20T05:03:47.077Z,17.43
2022-11-20T05:08:49.358Z,16.43
2022-11-20T05:13:52.627Z,15.67
2022-11-20T05:18:55.674Z,17.07
2022-11-20T05:23:57.627Z,15.70
2022-11-20T05:28:59.423Z,15.70
2022-11-20T05:34:01.303Z,17.03
2022-11-20T05:39:03.333Z,16.73
2022-11-20T05:44:05.244Z,14.57
2022-11-20T05:49:07.174Z,16.07
2022-11-20T05:54:08.894Z,15.87
2022-11-20T05:59:10.623Z,18.20
2022-11-20T06:04:12.383Z,16.73
2022-11-20T06:09:14.114Z,18.90
2022-11-20T06:14:15.875Z,19.63
2022-11-20T06:19:17.867Z,19.27
2022-11-20T06:24:19.787Z,18.07
2022-11-20T06:29:22.042Z,21.47
2022-11-20T06:34:23.989Z,21.60
2022-11-20T06:39:25.715Z,19.33
2022-11-20T06:44:27.517Z,20.70
2022-11-20T06:49:29.455Z,20.53
2022-11-20T06:54:31.263Z,19.63
2022-11-20T06:59:33.132Z,18.03
2022-11-20T07:04:34.860Z,20.57
2022-11-20T07:09:36.774Z,19.57
2022-11-20T07:14:38.679Z,20.70
2022-11-20T07:19:40.615Z,21.40
2022-11-20T07:24:45.970Z,20.57
2022-11-20T07:29:48.167Z,21.43
2022-11-20T07:34:50.146Z,21.53
2022-11-20T07:39:52.043Z,23.70
2022-11-20T07:44:53.777Z,24.60
2022-11-20T07:49:55.535Z,20.63
2022-11-20T07:54:57.442Z,22.03
2022-11-20T07:59:59.339Z,23.33
2022-11-20T08:05:01.079Z,22.57
2022-11-20T08:10:03.284Z,23.30
2022-11-20T08:15:11.399Z,22.43
2022-11-20T08:20:14.772Z,24.77
2022-11-20T08:25:16.651Z,24.43
2022-11-20T08:30:18.558Z,23.83
2022-11-20T08:35:21.351Z,23.47
2022-11-20T08:40:23.330Z,23.37
2022-11-20T08:45:28.388Z,24.33
2022-11-20T08:50:33.925Z,24.33
2022-11-20T08:55:37.757Z,24.60
2022-11-20T09:00:39.520Z,23.93
2022-11-20T09:05:41.536Z,21.03
2022-11-20T09:10:43.718Z,22.87
2022-11-20T09:15:45.453Z,24.40
2022-11-20T09:20:47.395Z,22.87
2022-11-20T09:25:49.442Z,23.33
2022-11-20T09:30:51.279Z,21.37
2022-11-20T09:35:53.547Z,22.67
2022-11-20T09:40:59.568Z,20.43
2022-11-20T09:46:21.608Z,20.63
2022-11-20T09:51:46.831Z,19.70
2022-11-20T09:56:57.681Z,20.90
2022-11-20T10:02:00.956Z,19.77
2022-11-20T10:07:38.063Z,22.43
2022-11-20T10:12:58.757Z,19.97
2022-11-20T10:18:12.887Z,19.27
2022-11-20T10:23:21.466Z,21.10
2022-11-20T10:28:31.419Z,19.83
2022-11-20T10:34:05.166Z,19.20
2022-11-20T10:39:08.242Z,17.10
2022-11-20T10:44:37.866Z,16.53
2022-11-20T10:49:42.440Z,14.37
2022-11-20T10:55:23.368Z,14.10
2022-11-20T11:00:25.463Z,12.47
2022-11-20T11:05:38.826Z,11.13
2022-11-20T11:10:55.873Z,8.93
2022-11-20T11:15:58.634Z,7.13
2022-11-20T11:21:02.421Z,6.57
2022-11-20T11:26:08.188Z,6.17
2022-11-20T11:31:10.173Z,4.27
2022-11-20T11:36:22.943Z,4.23
2022-11-20T11:41:29.177Z,3.53
2022-11-20T11:46:36.334Z,3.20
2022-11-20T11:52:14.963Z,3.73
2022-11-20T11:57:35.067Z,2.73
2022-11-20T12:02:50.070Z,2.90
2022-11-20T12:08:06.955Z,2.50
2022-11-20T12:13:40.853Z,2.30
2022-11-20T12:18:43.803Z,2.80
2022-11-20T12:24:03.703Z,2.53
2022-11-20T12:29:09.844Z,2.47
2022-11-20T12:34:33.789Z,2.43
2022-11-20T12:39:41.272Z,2.63
2022-11-20T12:45:10.581Z,2.83
2022-11-20T12:50:42.871Z,2.87
2022-11-20T12:56:06.974Z,3.13
2022-11-20T13:01:43.500Z,2.53
2022-11-20T13:06:45.927Z,2.80
2022-11-20T13:12:06.349Z,3.07
2022-11-20T13:17:18.043Z,3.13
2022-11-20T13:22:46.655Z,3.47
2022-11-20T13:27:49.971Z,3.37
2022-11-20T13:32:53.364Z,3.57
2022-11-20T13:38:24.438Z,2.67
2022-11-20T13:43:39.586Z,3.30
2022-11-20T13:48:44.338Z,2.57
2022-11-20T13:54:06.486Z,2.47
2022-11-20T13:59:15.357Z,2.17
2022-11-20T14:04:22.647Z,2.10
2022-11-20T14:09:31.711Z,2.50
2022-11-20T14:14:34.717Z,1.93
2022-11-20T14:19:38.716Z,1.83
2022-11-20T14:24:40.902Z,1.63
2022-11-20T14:29:45.563Z,1.50
2022-11-20T14:34:50.491Z,2.20
2022-11-20T14:39:54.726Z,2.30
2022-11-20T14:44:58.743Z,2.70
2022-11-20T14:50:05.923Z,2.30
2022-11-20T14:55:14.899Z,2.53
2022-11-20T15:00:16.585Z,2.87
2022-11-20T15:05:23.774Z,3.70
2022-11-20T15:10:28.056Z,3.30
2022-11-20T15:15:50.221Z,3.03
2022-11-20T15:20:53.101Z,3.27
2022-11-20T15:25:54.927Z,4.03
2022-11-20T15:30:59.554Z,3.87
2022-11-20T15:36:01.744Z,3.93
2022-11-20T15:41:04.054Z,4.37
2022-11-20T15:46:30.112Z,4.13
2022-11-20T15:51:35.131Z,4.70
2022-11-20T15:56:37.087Z,4.17
2022-11-20T16:01:39.060Z,4.53
2022-11-20T16:06:41.402Z,4.27
2022-11-20T16:11:43.569Z,5.10
2022-11-20T16:16:45.364Z,4.23
2022-11-20T16:21:47.273Z,4.13
2022-11-20T16:26:49.019Z,3.47
2022-11-20T16:31:50.793Z,4.20
2022-11-20T16:36:52.683Z,3.97
2022-11-20T16:41:54.386Z,3.03
2022-11-20T16:46:56.304Z,3.87
2022-11-20T16:51:58.243Z,3.40
2022-11-20T16:57:00.276Z,4.37
2022-11-20T17:02:02.251Z,3.00
2022-11-20T17:07:08.037Z,3.70
2022-11-20T17:12:10.599Z,2.70
2022-11-20T17:17:12.677Z,2.83
2022-11-20T17:22:14.418Z,2.10
2022-11-20T17:27:16.322Z,1.83
2022-11-20T17:32:18.059Z,1.73
2022-11-20T17:37:19.802Z,1.13
2022-11-20T17:42:27.635Z,1.40
2022-11-20T17:47:30.550Z,1.03
2022-11-20T17:52:32.320Z,1.50
2022-11-20T17:57:52.670Z,1.23
2022-11-20T18:02:55.474Z,2.03
2022-11-20T18:07:57.403Z,1.17
2022-11-20T18:12:59.387Z,1.53
2022-11-20T18:18:01.202Z,1.57
2022-11-20T18:23:02.997Z,1.90
2022-11-20T18:28:04.885Z,1.90
2022-11-20T18:33:06.618Z,3.20
2022-11-20T18:38:08.544Z,3.30
2022-11-20T18:43:29.525Z,4.57
2022-11-20T18:48:32.100Z,4.57
2022-11-20T18:53:36.963Z,5.70
2022-11-20T18:58:41.201Z,5.50
2022-11-20T19:03:43.819Z,4.93
2022-11-20T19:08:45.819Z,5.37
2022-11-20T19:13:47.656Z,5.57
2022-11-20T19:18:50.131Z,4.40
2022-11-20T19:23:54.148Z,3.97
2022-11-20T19:28:56.191Z,4.07
2022-11-20T19:34:00.697Z,3.87
2022-11-20T19:39:05.738Z,3.17
2022-11-20T19:44:09.786Z,3.83
2022-11-20T19:49:13.866Z,4.80
2022-11-20T19:54:16.649Z,4.30
2022-11-20T19:59:18.571Z,4.80
2022-11-20T20:04:20.475Z,5.23
2022-11-20T20:09:23.814Z,4.37
2022-11-20T20:14:26.452Z,4.67
2022-11-20T20:19:28.444Z,5.10
2022-11-20T20:24:30.387Z,4.50
2022-11-20T20:29:32.303Z,5.03
2022-11-20T20:34:34.073Z,4.47
2022-11-20T20:39:35.835Z,4.90
2022-11-20T20:44:56.244Z,4.30
2022-11-20T20:49:58.152Z,3.57
2022-11-20T20:55:00.150Z,4.63
2022-11-20T21:00:02.383Z,3.60
2022-11-20T21:05:04.499Z,5.90
2022-11-20T21:10:06.594Z,3.40
2022-11-20T21:15:08.812Z,4.40
2022-11-20T21:20:31.577Z,5.20
2022-11-20T21:25:37.102Z,3.90
2022-11-20T21:30:38.998Z,3.53
2022-11-20T21:35:41.449Z,3.00
2022-11-20T21:40:43.410Z,3.53
2022-11-20T21:45:45.183Z,3.90
2022-11-20T21:50:47.136Z,3.80
2022-11-20T21:55:56.268Z,4.40
2022-11-20T22:00:58.198Z,4.23
2022-11-20T22:06:00.281Z,4.13
2022-11-20T22:11:04.740Z,3.60
2022-11-20T22:16:06.542Z,4.13
2022-11-20T22:21:08.602Z,3.73
2022-11-20T22:26:12.495Z,4.53
2022-11-20T22:31:14.773Z,3.83
2022-11-20T22:36:22.119Z,2.70
2022-11-20T22:41:28.639Z,3.80
2022-11-20T22:46:35.812Z,3.20
2022-11-20T22:51:40.957Z,3.57
2022-11-20T22:56:42.860Z,3.03
2022-11-20T23:01:44.643Z,3.03
2022-11-20T23:06:46.610Z,2.83
2022-11-20T23:11:48.525Z,2.33
2022-11-20T23:16:50.301Z,1.83
2022-11-20T23:21:52.043Z,1.37
2022-11-20T23:26:54.033Z,1.50
2022-11-20T23:31:55.820Z,0.90
2022-11-20T23:36:57.768Z,0.70
2022-11-20T23:41:59.516Z,0.43
2022-11-20T23:47:01.411Z,0.60
2022-11-20T23:52:03.611Z,0.80
2022-11-20T23:57:05.386Z,0.83
